sensor_id;sensor_type;location;lat;lon;timestamp;pressure;altitude;pressure_sealevel;temperature;humidity
13068;BME280;6600;51.362;6.686;2023-05-23T00:00:22;101287.59;;;16.44;100.00
13068;BME280;6600;51.362;6.686;2023-05-23T00:02:48;101284.47;;;16.52;100.00
13068;BME280;6600;51.362;6.686;2023-05-23T00:05:13;101285.09;;;16.43;100.00
13068;BME280;6600;51.362;6.686;2023-05-23T00:07:42;101280.66;;;16.37;100.00
13068;BME280;6600;51.362;6.686;2023-05-23T00:10:08;101283.78;;;16.45;100.00
13068;BME280;6600;51.362;6.686;2023-05-23T00:12:33;101280.38;;;16.50;100.00
13068;BME280;6600;51.362;6.686;2023-05-23T00:14:59;101286.63;;;16.50;100.00
13068;BME280;6600;51.362;6.686;2023-05-23T00:17:24;101289.22;;;16.45;100.00
13068;BME280;6600;51.362;6.686;2023-05-23T00:19:50;101294.63;;;16.45;100.00
13068;BME280;6600;51.362;6.686;2023-05-23T00:22:15;101296.63;;;16.50;100.00
13068;BME280;6600;51.362;6.686;2023-05-23T00:24:41;101297.59;;;16.32;100.00
13068;BME280;6600;51.362;6.686;2023-05-23T00:27:07;101293.94;;;16.38;100.00
13068;BME280;6600;51.362;6.686;2023-05-23T00:29:32;101301.34;;;16.31;100.00
13068;BME280;6600;51.362;6.686;2023-05-23T00:31:59;101300.91;;;16.23;100.00
13068;BME280;6600;51.362;6.686;2023-05-23T00:34:24;101301.25;;;16.26;99.86
13068;BME280;6600;51.362;6.686;2023-05-23T00:36:49;101299.13;;;16.28;99.38
13068;BME280;6600;51.362;6.686;2023-05-23T00:39:15;101296.91;;;16.25;99.36
13068;BME280;6600;51.362;6.686;2023-05-23T00:41:48;101307.94;;;16.35;99.15
13068;BME280;6600;51.362;6.686;2023-05-23T00:44:13;101295.84;;;16.26;98.52
13068;BME280;6600;51.362;6.686;2023-05-23T00:46:40;101310.22;;;16.15;98.80
13068;BME280;6600;51.362;6.686;2023-05-23T00:49:08;101301.75;;;16.23;98.49
13068;BME280;6600;51.362;6.686;2023-05-23T00:51:34;101298.22;;;16.11;99.11
13068;BME280;6600;51.362;6.686;2023-05-23T00:54:00;101304.81;;;16.15;99.02
13068;BME280;6600;51.362;6.686;2023-05-23T00:56:26;101306.81;;;16.20;98.98
13068;BME280;6600;51.362;6.686;2023-05-23T00:58:53;101310.78;;;16.17;98.88
13068;BME280;6600;51.362;6.686;2023-05-23T01:01:19;101307.16;;;16.23;98.65
13068;BME280;6600;51.362;6.686;2023-05-23T01:03:44;101302.31;;;16.25;98.56
13068;BME280;6600;51.362;6.686;2023-05-23T01:06:12;101308.78;;;16.24;98.56
13068;BME280;6600;51.362;6.686;2023-05-23T01:08:38;101303.84;;;16.21;99.21
13068;BME280;6600;51.362;6.686;2023-05-23T01:11:11;101305.03;;;16.25;99.02
13068;BME280;6600;51.362;6.686;2023-05-23T01:13:44;101304.69;;;16.22;99.39
13068;BME280;6600;51.362;6.686;2023-05-23T01:16:29;101302.91;;;16.27;99.48
13068;BME280;6600;51.362;6.686;2023-05-23T01:21:30;101301.75;;;16.23;100.00
13068;BME280;6600;51.362;6.686;2023-05-23T01:27:07;101305.63;;;16.27;100.00
13068;BME280;6600;51.362;6.686;2023-05-23T01:29:44;101315.84;;;16.25;99.83
13068;BME280;6600;51.362;6.686;2023-05-23T01:32:11;101313.25;;;16.30;99.28
13068;BME280;6600;51.362;6.686;2023-05-23T01:34:38;101308.31;;;16.27;99.44
13068;BME280;6600;51.362;6.686;2023-05-23T01:37:08;101318.41;;;16.32;99.30
13068;BME280;6600;51.362;6.686;2023-05-23T01:39:35;101319.34;;;16.37;99.46
13068;BME280;6600;51.362;6.686;2023-05-23T01:42:01;101314.09;;;16.31;99.05
13068;BME280;6600;51.362;6.686;2023-05-23T01:44:26;101313.94;;;16.37;98.84
13068;BME280;6600;51.362;6.686;2023-05-23T01:46:52;101314.88;;;16.31;98.64
13068;BME280;6600;51.362;6.686;2023-05-23T01:49:18;101320.41;;;16.25;99.02
13068;BME280;6600;51.362;6.686;2023-05-23T01:51:45;101319.59;;;16.24;99.08
13068;BME280;6600;51.362;6.686;2023-05-23T01:54:11;101319.16;;;16.27;99.27
13068;BME280;6600;51.362;6.686;2023-05-23T01:56:37;101326.91;;;16.24;98.68
13068;BME280;6600;51.362;6.686;2023-05-23T01:59:04;101321.25;;;16.25;98.55
13068;BME280;6600;51.362;6.686;2023-05-23T02:01:30;101323.84;;;16.20;98.61
13068;BME280;6600;51.362;6.686;2023-05-23T02:03:55;101321.84;;;16.27;98.32
13068;BME280;6600;51.362;6.686;2023-05-23T02:06:20;101326.66;;;16.25;98.91
13068;BME280;6600;51.362;6.686;2023-05-23T02:08:46;101327.13;;;16.22;99.17
13068;BME280;6600;51.362;6.686;2023-05-23T02:11:11;101325.97;;;16.18;99.29
13068;BME280;6600;51.362;6.686;2023-05-23T02:13:36;101327.75;;;16.12;99.44
13068;BME280;6600;51.362;6.686;2023-05-23T02:16:02;101327.34;;;16.21;99.37
13068;BME280;6600;51.362;6.686;2023-05-23T02:18:28;101325.13;;;16.17;99.47
13068;BME280;6600;51.362;6.686;2023-05-23T02:20:54;101332.75;;;16.21;99.46
13068;BME280;6600;51.362;6.686;2023-05-23T02:23:22;101322.06;;;16.14;99.62
13068;BME280;6600;51.362;6.686;2023-05-23T02:25:48;101322.56;;;16.23;99.47
13068;BME280;6600;51.362;6.686;2023-05-23T02:28:13;101322.19;;;16.19;99.50
13068;BME280;6600;51.362;6.686;2023-05-23T02:30:39;101328.31;;;16.26;99.48
13068;BME280;6600;51.362;6.686;2023-05-23T02:33:05;101331.72;;;16.22;99.50
13068;BME280;6600;51.362;6.686;2023-05-23T02:35:31;101336.16;;;16.28;99.62
13068;BME280;6600;51.362;6.686;2023-05-23T02:37:56;101335.81;;;16.24;99.39
13068;BME280;6600;51.362;6.686;2023-05-23T02:40:21;101346.19;;;16.27;99.41
13068;BME280;6600;51.362;6.686;2023-05-23T02:42:47;101339.59;;;16.23;99.44
13068;BME280;6600;51.362;6.686;2023-05-23T02:45:12;101343.56;;;16.21;99.90
13068;BME280;6600;51.362;6.686;2023-05-23T02:47:37;101341.97;;;16.08;99.92
13068;BME280;6600;51.362;6.686;2023-05-23T02:50:03;101350.53;;;16.05;100.00
13068;BME280;6600;51.362;6.686;2023-05-23T02:52:29;101353.81;;;16.07;100.00
13068;BME280;6600;51.362;6.686;2023-05-23T02:54:54;101347.38;;;16.08;100.00
13068;BME280;6600;51.362;6.686;2023-05-23T02:57:19;101354.56;;;16.02;100.00
13068;BME280;6600;51.362;6.686;2023-05-23T02:59:44;101349.28;;;15.96;100.00
13068;BME280;6600;51.362;6.686;2023-05-23T03:02:10;101350.31;;;15.95;100.00
13068;BME280;6600;51.362;6.686;2023-05-23T03:04:35;101347.72;;;16.00;100.00
13068;BME280;6600;51.362;6.686;2023-05-23T03:07:02;101356.78;;;15.94;100.00
13068;BME280;6600;51.362;6.686;2023-05-23T03:09:27;101354.69;;;15.96;100.00
13068;BME280;6600;51.362;6.686;2023-05-23T03:11:52;101356.41;;;15.90;100.00
13068;BME280;6600;51.362;6.686;2023-05-23T03:14:18;101356.78;;;15.94;100.00
13068;BME280;6600;51.362;6.686;2023-05-23T03:16:43;101353.13;;;15.88;100.00
13068;BME280;6600;51.362;6.686;2023-05-23T03:19:09;101349.59;;;15.88;100.00
13068;BME280;6600;51.362;6.686;2023-05-23T03:21:34;101349.47;;;15.83;100.00
13068;BME280;6600;51.362;6.686;2023-05-23T03:24:00;101346.19;;;15.81;100.00
13068;BME280;6600;51.362;6.686;2023-05-23T03:26:26;101345.72;;;15.84;100.00
13068;BME280;6600;51.362;6.686;2023-05-23T03:28:51;101348.66;;;15.71;100.00
13068;BME280;6600;51.362;6.686;2023-05-23T03:31:16;101348.31;;;15.79;100.00
13068;BME280;6600;51.362;6.686;2023-05-23T03:33:42;101356.28;;;15.74;100.00
13068;BME280;6600;51.362;6.686;2023-05-23T03:36:07;101356.28;;;15.62;100.00
13068;BME280;6600;51.362;6.686;2023-05-23T03:38:33;101354.63;;;15.73;100.00
13068;BME280;6600;51.362;6.686;2023-05-23T03:40:58;101360.03;;;15.73;100.00
13068;BME280;6600;51.362;6.686;2023-05-23T03:43:23;101367.31;;;15.60;100.00
13068;BME280;6600;51.362;6.686;2023-05-23T03:45:48;101364.72;;;15.65;100.00
13068;BME280;6600;51.362;6.686;2023-05-23T03:48:14;101370.84;;;15.73;100.00
13068;BME280;6600;51.362;6.686;2023-05-23T03:50:40;101375.53;;;15.65;100.00
13068;BME280;6600;51.362;6.686;2023-05-23T03:53:05;101380.22;;;15.58;100.00
13068;BME280;6600;51.362;6.686;2023-05-23T03:55:31;101384.13;;;15.62;100.00
13068;BME280;6600;51.362;6.686;2023-05-23T03:57:57;101383.91;;;15.64;100.00
13068;BME280;6600;51.362;6.686;2023-05-23T04:00:22;101392.56;;;15.66;100.00
13068;BME280;6600;51.362;6.686;2023-05-23T04:02:47;101383.78;;;15.71;100.00
13068;BME280;6600;51.362;6.686;2023-05-23T04:05:14;101380.50;;;15.69;100.00
13068;BME280;6600;51.362;6.686;2023-05-23T04:07:39;101393.41;;;15.66;100.00
13068;BME280;6600;51.362;6.686;2023-05-23T04:10:06;101386.81;;;15.62;100.00
13068;BME280;6600;51.362;6.686;2023-05-23T04:12:32;101396.91;;;15.55;100.00
13068;BME280;6600;51.362;6.686;2023-05-23T04:14:57;101402.09;;;15.57;100.00
13068;BME280;6600;51.362;6.686;2023-05-23T04:17:23;101402.19;;;15.62;100.00
13068;BME280;6600;51.362;6.686;2023-05-23T04:19:49;101410.09;;;15.63;100.00
13068;BME280;6600;51.362;6.686;2023-05-23T04:22:15;101407.25;;;15.58;100.00
13068;BME280;6600;51.362;6.686;2023-05-23T04:24:41;101404.69;;;15.63;100.00
13068;BME280;6600;51.362;6.686;2023-05-23T04:27:06;101408.91;;;15.59;100.00
13068;BME280;6600;51.362;6.686;2023-05-23T04:29:32;101410.66;;;15.54;100.00
13068;BME280;6600;51.362;6.686;2023-05-23T04:31:58;101410.56;;;15.60;100.00
13068;BME280;6600;51.362;6.686;2023-05-23T04:34:23;101413.34;;;15.54;100.00
13068;BME280;6600;51.362;6.686;2023-05-23T04:36:49;101408.31;;;15.57;100.00
13068;BME280;6600;51.362;6.686;2023-05-23T04:39:14;101413.94;;;15.56;100.00
13068;BME280;6600;51.362;6.686;2023-05-23T04:41:41;101418.03;;;15.58;100.00
13068;BME280;6600;51.362;6.686;2023-05-23T04:44:08;101416.28;;;15.52;100.00
13068;BME280;6600;51.362;6.686;2023-05-23T04:46:34;101420.25;;;15.50;100.00
13068;BME280;6600;51.362;6.686;2023-05-23T04:49:00;101418.59;;;15.49;100.00
13068;BME280;6600;51.362;6.686;2023-05-23T04:51:26;101419.88;;;15.46;100.00
13068;BME280;6600;51.362;6.686;2023-05-23T04:53:51;101423.19;;;15.48;100.00
13068;BME280;6600;51.362;6.686;2023-05-23T04:56:17;101424.75;;;15.56;100.00
13068;BME280;6600;51.362;6.686;2023-05-23T04:58:47;101430.59;;;15.53;100.00
13068;BME280;6600;51.362;6.686;2023-05-23T05:01:13;101426.03;;;15.53;100.00
13068;BME280;6600;51.362;6.686;2023-05-23T05:03:39;101425.75;;;15.43;100.00
13068;BME280;6600;51.362;6.686;2023-05-23T05:06:05;101433.69;;;15.38;100.00
13068;BME280;6600;51.362;6.686;2023-05-23T05:08:31;101432.34;;;15.47;100.00
13068;BME280;6600;51.362;6.686;2023-05-23T05:10:56;101431.28;;;15.48;100.00
13068;BME280;6600;51.362;6.686;2023-05-23T05:13:21;101434.13;;;15.53;100.00
13068;BME280;6600;51.362;6.686;2023-05-23T05:15:47;101438.50;;;15.54;100.00
13068;BME280;6600;51.362;6.686;2023-05-23T05:18:12;101441.31;;;15.59;100.00
13068;BME280;6600;51.362;6.686;2023-05-23T05:20:38;101446.44;;;15.49;100.00
13068;BME280;6600;51.362;6.686;2023-05-23T05:23:03;101449.28;;;15.54;100.00
13068;BME280;6600;51.362;6.686;2023-05-23T05:25:28;101445.97;;;15.52;100.00
13068;BME280;6600;51.362;6.686;2023-05-23T05:28:00;101439.22;;;15.61;100.00
13068;BME280;6600;51.362;6.686;2023-05-23T05:30:32;101452.94;;;15.60;100.00
13068;BME280;6600;51.362;6.686;2023-05-23T05:32:59;101451.38;;;15.52;100.00
13068;BME280;6600;51.362;6.686;2023-05-23T05:35:26;101462.66;;;15.49;100.00
13068;BME280;6600;51.362;6.686;2023-05-23T05:37:51;101466.09;;;15.38;100.00
13068;BME280;6600;51.362;6.686;2023-05-23T05:40:16;101464.84;;;15.41;100.00
13068;BME280;6600;51.362;6.686;2023-05-23T05:42:42;101456.94;;;15.39;100.00
13068;BME280;6600;51.362;6.686;2023-05-23T05:45:07;101471.13;;;15.35;100.00
13068;BME280;6600;51.362;6.686;2023-05-23T05:47:33;101473.25;;;15.33;100.00
13068;BME280;6600;51.362;6.686;2023-05-23T05:49:58;101487.78;;;15.32;100.00
13068;BME280;6600;51.362;6.686;2023-05-23T05:52:23;101483.53;;;15.24;100.00
13068;BME280;6600;51.362;6.686;2023-05-23T05:54:48;101486.97;;;15.31;100.00
13068;BME280;6600;51.362;6.686;2023-05-23T05:57:14;101497.31;;;15.34;100.00
13068;BME280;6600;51.362;6.686;2023-05-23T05:59:39;101481.84;;;15.41;100.00
13068;BME280;6600;51.362;6.686;2023-05-23T06:02:05;101486.66;;;15.39;100.00
13068;BME280;6600;51.362;6.686;2023-05-23T06:04:30;101492.53;;;15.36;100.00
13068;BME280;6600;51.362;6.686;2023-05-23T06:06:56;101497.19;;;15.29;100.00
13068;BME280;6600;51.362;6.686;2023-05-23T06:09:21;101490.38;;;15.27;100.00
13068;BME280;6600;51.362;6.686;2023-05-23T06:11:46;101493.16;;;15.20;100.00
13068;BME280;6600;51.362;6.686;2023-05-23T06:14:12;101490.75;;;15.30;100.00
13068;BME280;6600;51.362;6.686;2023-05-23T06:16:37;101492.38;;;15.31;100.00
13068;BME280;6600;51.362;6.686;2023-05-23T06:19:02;101494.59;;;15.34;100.00
13068;BME280;6600;51.362;6.686;2023-05-23T06:21:28;101497.31;;;15.34;100.00
13068;BME280;6600;51.362;6.686;2023-05-23T06:23:53;101498.50;;;15.38;100.00
13068;BME280;6600;51.362;6.686;2023-05-23T06:26:18;101488.63;;;15.50;100.00
13068;BME280;6600;51.362;6.686;2023-05-23T06:28:43;101494.75;;;15.57;100.00
13068;BME280;6600;51.362;6.686;2023-05-23T06:31:09;101491.97;;;15.64;100.00
13068;BME280;6600;51.362;6.686;2023-05-23T06:33:35;101498.81;;;15.48;100.00
13068;BME280;6600;51.362;6.686;2023-05-23T06:36:00;101494.59;;;15.52;100.00
13068;BME280;6600;51.362;6.686;2023-05-23T06:38:28;101502.13;;;15.50;100.00
13068;BME280;6600;51.362;6.686;2023-05-23T06:40:54;101511.28;;;15.49;100.00
13068;BME280;6600;51.362;6.686;2023-05-23T06:43:19;101502.16;;;15.62;100.00
13068;BME280;6600;51.362;6.686;2023-05-23T06:45:45;101514.59;;;15.51;100.00
13068;BME280;6600;51.362;6.686;2023-05-23T06:48:14;101519.06;;;15.57;100.00
13068;BME280;6600;51.362;6.686;2023-05-23T06:50:39;101515.53;;;15.57;99.25
13068;BME280;6600;51.362;6.686;2023-05-23T06:53:05;101514.31;;;15.71;99.81
13068;BME280;6600;51.362;6.686;2023-05-23T06:55:31;101517.59;;;15.73;98.98
13068;BME280;6600;51.362;6.686;2023-05-23T06:58:00;101524.94;;;15.54;98.83
13068;BME280;6600;51.362;6.686;2023-05-23T07:00:28;101519.47;;;15.73;99.37
13068;BME280;6600;51.362;6.686;2023-05-23T07:02:53;101523.00;;;15.73;99.15
13068;BME280;6600;51.362;6.686;2023-05-23T07:05:19;101517.69;;;15.66;98.99
13068;BME280;6600;51.362;6.686;2023-05-23T07:07:44;101526.06;;;15.77;99.20
13068;BME280;6600;51.362;6.686;2023-05-23T07:10:09;101531.25;;;15.78;99.07
13068;BME280;6600;51.362;6.686;2023-05-23T07:12:35;101526.25;;;15.63;99.00
13068;BME280;6600;51.362;6.686;2023-05-23T07:15:00;101531.66;;;15.63;99.42
13068;BME280;6600;51.362;6.686;2023-05-23T07:17:26;101535.81;;;15.78;99.74
13068;BME280;6600;51.362;6.686;2023-05-23T07:19:54;101529.94;;;15.81;99.83
13068;BME280;6600;51.362;6.686;2023-05-23T07:22:19;101545.91;;;15.71;99.29
13068;BME280;6600;51.362;6.686;2023-05-23T07:24:45;101545.53;;;15.67;99.41
13068;BME280;6600;51.362;6.686;2023-05-23T07:27:10;101549.63;;;15.70;99.71
13068;BME280;6600;51.362;6.686;2023-05-23T07:29:35;101549.28;;;15.66;99.68
13068;BME280;6600;51.362;6.686;2023-05-23T07:32:01;101554.03;;;15.52;100.00
13068;BME280;6600;51.362;6.686;2023-05-23T07:34:26;101554.50;;;15.49;100.00
13068;BME280;6600;51.362;6.686;2023-05-23T07:36:52;101557.19;;;15.49;99.79
13068;BME280;6600;51.362;6.686;2023-05-23T07:39:17;101567.38;;;15.47;99.31
13068;BME280;6600;51.362;6.686;2023-05-23T07:41:47;101568.25;;;15.41;98.51
13068;BME280;6600;51.362;6.686;2023-05-23T07:44:13;101567.78;;;15.51;99.53
13068;BME280;6600;51.362;6.686;2023-05-23T07:46:38;101570.84;;;15.36;99.23
13068;BME280;6600;51.362;6.686;2023-05-23T07:49:03;101589.19;;;15.28;99.19
13068;BME280;6600;51.362;6.686;2023-05-23T07:51:29;101584.31;;;15.18;100.00
13068;BME280;6600;51.362;6.686;2023-05-23T07:53:54;101578.69;;;15.01;100.00
13068;BME280;6600;51.362;6.686;2023-05-23T07:56:20;101583.22;;;15.26;100.00
13068;BME280;6600;51.362;6.686;2023-05-23T07:58:46;101585.38;;;14.99;100.00
13068;BME280;6600;51.362;6.686;2023-05-23T08:01:11;101585.81;;;14.96;100.00
13068;BME280;6600;51.362;6.686;2023-05-23T08:03:36;101586.69;;;14.90;100.00
13068;BME280;6600;51.362;6.686;2023-05-23T08:06:02;101588.81;;;14.88;100.00
13068;BME280;6600;51.362;6.686;2023-05-23T08:08:27;101597.50;;;14.90;100.00
13068;BME280;6600;51.362;6.686;2023-05-23T08:10:52;101596.72;;;14.83;100.00
13068;BME280;6600;51.362;6.686;2023-05-23T08:13:18;101603.78;;;14.84;100.00
13068;BME280;6600;51.362;6.686;2023-05-23T08:15:43;101600.56;;;14.75;100.00
13068;BME280;6600;51.362;6.686;2023-05-23T08:18:08;101608.47;;;14.70;100.00
13068;BME280;6600;51.362;6.686;2023-05-23T08:20:34;101608.53;;;14.63;100.00
13068;BME280;6600;51.362;6.686;2023-05-23T08:23:00;101620.03;;;14.52;100.00
13068;BME280;6600;51.362;6.686;2023-05-23T08:25:26;101616.63;;;14.32;100.00
13068;BME280;6600;51.362;6.686;2023-05-23T08:27:58;101617.00;;;14.42;100.00
13068;BME280;6600;51.362;6.686;2023-05-23T08:30:25;101617.00;;;14.42;100.00
13068;BME280;6600;51.362;6.686;2023-05-23T08:32:52;101618.41;;;14.51;100.00
13068;BME280;6600;51.362;6.686;2023-05-23T08:35:18;101617.78;;;14.49;100.00
13068;BME280;6600;51.362;6.686;2023-05-23T08:37:43;101626.91;;;14.48;100.00
13068;BME280;6600;51.362;6.686;2023-05-23T08:40:13;101625.59;;;14.57;100.00
13068;BME280;6600;51.362;6.686;2023-05-23T08:42:42;101626.91;;;14.48;100.00
13068;BME280;6600;51.362;6.686;2023-05-23T08:45:08;101631.91;;;14.45;100.00
13068;BME280;6600;51.362;6.686;2023-05-23T08:47:35;101633.22;;;14.29;100.00
13068;BME280;6600;51.362;6.686;2023-05-23T08:50:04;101637.19;;;14.27;100.00
13068;BME280;6600;51.362;6.686;2023-05-23T08:52:32;101645.34;;;14.20;100.00
13068;BME280;6600;51.362;6.686;2023-05-23T08:54:59;101645.56;;;14.12;100.00
13068;BME280;6600;51.362;6.686;2023-05-23T08:57:25;101663.16;;;14.14;100.00
13068;BME280;6600;51.362;6.686;2023-05-23T08:59:51;101659.66;;;14.14;100.00
13068;BME280;6600;51.362;6.686;2023-05-23T09:02:17;101663.28;;;13.95;100.00
13068;BME280;6600;51.362;6.686;2023-05-23T09:04:43;101669.91;;;13.99;100.00
13068;BME280;6600;51.362;6.686;2023-05-23T09:07:09;101674.22;;;14.00;100.00
13068;BME280;6600;51.362;6.686;2023-05-23T09:09:35;101675.28;;;13.99;100.00
13068;BME280;6600;51.362;6.686;2023-05-23T09:12:01;101669.25;;;14.03;100.00
13068;BME280;6600;51.362;6.686;2023-05-23T09:14:27;101675.25;;;14.05;100.00
13068;BME280;6600;51.362;6.686;2023-05-23T09:17:00;101682.31;;;14.00;100.00
13068;BME280;6600;51.362;6.686;2023-05-23T09:19:25;101675.69;;;14.02;100.00
13068;BME280;6600;51.362;6.686;2023-05-23T09:21:52;101681.91;;;13.96;99.64
13068;BME280;6600;51.362;6.686;2023-05-23T09:24:18;101693.53;;;13.97;99.68
13068;BME280;6600;51.362;6.686;2023-05-23T09:26:46;101701.88;;;13.89;99.48
13068;BME280;6600;51.362;6.686;2023-05-23T09:29:12;101702.53;;;13.78;100.00
13068;BME280;6600;51.362;6.686;2023-05-23T09:31:37;101701.44;;;13.92;99.77
13068;BME280;6600;51.362;6.686;2023-05-23T09:34:03;101700.81;;;13.90;99.13
13068;BME280;6600;51.362;6.686;2023-05-23T09:36:29;101703.16;;;13.73;98.83
13068;BME280;6600;51.362;6.686;2023-05-23T09:39:01;101696.28;;;13.84;99.18
13068;BME280;6600;51.362;6.686;2023-05-23T09:41:29;101701.06;;;13.82;98.92
13068;BME280;6600;51.362;6.686;2023-05-23T09:43:57;101699.78;;;13.91;98.42
13068;BME280;6600;51.362;6.686;2023-05-23T09:46:27;101700.53;;;14.04;98.31
13068;BME280;6600;51.362;6.686;2023-05-23T09:48:52;101704.72;;;13.94;98.45
13068;BME280;6600;51.362;6.686;2023-05-23T09:51:20;101701.00;;;13.95;98.26
13068;BME280;6600;51.362;6.686;2023-05-23T09:53:46;101702.09;;;14.25;97.95
13068;BME280;6600;51.362;6.686;2023-05-23T09:56:12;101695.44;;;14.34;96.08
13068;BME280;6600;51.362;6.686;2023-05-23T09:58:43;101705.69;;;14.57;94.30
13068;BME280;6600;51.362;6.686;2023-05-23T10:01:10;101712.66;;;14.33;94.19
13068;BME280;6600;51.362;6.686;2023-05-23T10:03:39;101704.84;;;14.56;93.89
13068;BME280;6600;51.362;6.686;2023-05-23T10:08:54;101708.66;;;14.74;89.44
13068;BME280;6600;51.362;6.686;2023-05-23T10:14:00;101704.56;;;14.96;87.45
13068;BME280;6600;51.362;6.686;2023-05-23T10:19:06;101710.13;;;15.26;86.09
13068;BME280;6600;51.362;6.686;2023-05-23T10:21:43;101715.31;;;15.45;85.30
13068;BME280;6600;51.362;6.686;2023-05-23T10:24:10;101701.25;;;15.80;85.04
13068;BME280;6600;51.362;6.686;2023-05-23T10:26:36;101693.97;;;15.98;83.42
13068;BME280;6600;51.362;6.686;2023-05-23T10:29:01;101708.41;;;16.22;82.51
13068;BME280;6600;51.362;6.686;2023-05-23T10:31:27;101706.06;;;15.96;82.30
13068;BME280;6600;51.362;6.686;2023-05-23T10:34:14;101705.06;;;16.08;83.20
13068;BME280;6600;51.362;6.686;2023-05-23T10:36:52;101702.63;;;15.89;82.66
13068;BME280;6600;51.362;6.686;2023-05-23T10:40:02;101706.81;;;16.03;82.29
13068;BME280;6600;51.362;6.686;2023-05-23T10:45:18;101705.31;;;15.89;81.55
13068;BME280;6600;51.362;6.686;2023-05-23T10:47:45;101716.41;;;15.99;81.42
13068;BME280;6600;51.362;6.686;2023-05-23T10:50:12;101715.03;;;16.08;81.57
13068;BME280;6600;51.362;6.686;2023-05-23T10:52:39;101714.66;;;16.04;82.47
13068;BME280;6600;51.362;6.686;2023-05-23T10:55:12;101724.53;;;15.81;83.59
13068;BME280;6600;51.362;6.686;2023-05-23T10:57:39;101726.91;;;15.52;84.26
13068;BME280;6600;51.362;6.686;2023-05-23T11:00:14;101722.16;;;15.48;83.92
13068;BME280;6600;51.362;6.686;2023-05-23T11:02:52;101731.66;;;15.57;84.59
13068;BME280;6600;51.362;6.686;2023-05-23T11:05:22;101727.53;;;15.54;82.35
13068;BME280;6600;51.362;6.686;2023-05-23T11:08:13;101742.06;;;15.53;81.50
13068;BME280;6600;51.362;6.686;2023-05-23T11:10:53;101742.41;;;15.82;82.09
13068;BME280;6600;51.362;6.686;2023-05-23T11:13:20;101732.47;;;16.12;81.76
13068;BME280;6600;51.362;6.686;2023-05-23T11:15:45;101730.38;;;16.74;79.66
13068;BME280;6600;51.362;6.686;2023-05-23T11:18:27;101731.31;;;16.67;77.86
13068;BME280;6600;51.362;6.686;2023-05-23T11:20:57;101727.88;;;16.60;78.37
13068;BME280;6600;51.362;6.686;2023-05-23T11:23:38;101729.00;;;16.23;79.05
13068;BME280;6600;51.362;6.686;2023-05-23T11:26:27;101738.16;;;16.22;80.04
13068;BME280;6600;51.362;6.686;2023-05-23T11:28:57;101739.53;;;15.77;80.97
13068;BME280;6600;51.362;6.686;2023-05-23T11:31:23;101735.66;;;15.48;81.11
13068;BME280;6600;51.362;6.686;2023-05-23T11:33:51;101741.03;;;15.54;80.94
13068;BME280;6600;51.362;6.686;2023-05-23T11:36:17;101741.69;;;15.50;81.20
13068;BME280;6600;51.362;6.686;2023-05-23T11:38:42;101736.84;;;15.95;82.58
13068;BME280;6600;51.362;6.686;2023-05-23T11:41:08;101741.72;;;16.34;80.78
13068;BME280;6600;51.362;6.686;2023-05-23T11:43:33;101732.72;;;16.40;79.02
13068;BME280;6600;51.362;6.686;2023-05-23T11:46:09;101738.16;;;16.52;78.26
13068;BME280;6600;51.362;6.686;2023-05-23T11:48:34;101748.75;;;16.83;77.59
13068;BME280;6600;51.362;6.686;2023-05-23T11:51:00;101748.19;;;16.93;76.23
13068;BME280;6600;51.362;6.686;2023-05-23T11:53:27;101746.16;;;16.77;76.22
13068;BME280;6600;51.362;6.686;2023-05-23T11:55:54;101744.81;;;16.56;76.09
13068;BME280;6600;51.362;6.686;2023-05-23T11:58:21;101746.72;;;16.67;78.65
13068;BME280;6600;51.362;6.686;2023-05-23T12:00:47;101742.44;;;16.89;77.28
13068;BME280;6600;51.362;6.686;2023-05-23T12:03:12;101743.59;;;16.82;75.85
13068;BME280;6600;51.362;6.686;2023-05-23T12:05:37;101746.94;;;17.07;75.60
13068;BME280;6600;51.362;6.686;2023-05-23T12:08:03;101752.03;;;17.38;73.40
13068;BME280;6600;51.362;6.686;2023-05-23T12:10:28;101754.84;;;17.32;73.36
13068;BME280;6600;51.362;6.686;2023-05-23T12:12:54;101753.66;;;17.16;70.86
13068;BME280;6600;51.362;6.686;2023-05-23T12:15:24;101752.72;;;17.22;71.58
13068;BME280;6600;51.362;6.686;2023-05-23T12:17:52;101749.78;;;17.24;71.04
13068;BME280;6600;51.362;6.686;2023-05-23T12:20:18;101755.78;;;17.02;69.64
13068;BME280;6600;51.362;6.686;2023-05-23T12:22:45;101759.41;;;17.08;70.82
13068;BME280;6600;51.362;6.686;2023-05-23T12:25:10;101753.53;;;16.99;70.37
13068;BME280;6600;51.362;6.686;2023-05-23T12:27:36;101752.59;;;17.17;71.02
13068;BME280;6600;51.362;6.686;2023-05-23T12:30:11;101753.69;;;17.62;70.33
13068;BME280;6600;51.362;6.686;2023-05-23T12:32:39;101757.38;;;17.56;71.10
13068;BME280;6600;51.362;6.686;2023-05-23T12:35:09;101753.34;;;17.71;68.87
13068;BME280;6600;51.362;6.686;2023-05-23T12:37:40;101757.81;;;17.53;69.65
13068;BME280;6600;51.362;6.686;2023-05-23T12:40:14;101749.78;;;17.24;71.98
13068;BME280;6600;51.362;6.686;2023-05-23T12:42:58;101750.34;;;17.02;70.51
13068;BME280;6600;51.362;6.686;2023-05-23T12:47:54;101745.78;;;17.03;71.88
13068;BME280;6600;51.362;6.686;2023-05-23T12:50:20;101744.63;;;17.57;69.80
13068;BME280;6600;51.362;6.686;2023-05-23T12:52:45;101735.97;;;18.06;69.58
13068;BME280;6600;51.362;6.686;2023-05-23T12:55:12;101753.25;;;18.17;68.09
13068;BME280;6600;51.362;6.686;2023-05-23T12:57:37;101742.63;;;18.27;66.08
13068;BME280;6600;51.362;6.686;2023-05-23T13:00:03;101740.47;;;18.29;66.90
13068;BME280;6600;51.362;6.686;2023-05-23T13:02:28;101745.09;;;17.65;66.88
13068;BME280;6600;51.362;6.686;2023-05-23T13:04:54;101740.84;;;17.70;68.79
13068;BME280;6600;51.362;6.686;2023-05-23T13:07:20;101746.75;;;17.66;68.07
13068;BME280;6600;51.362;6.686;2023-05-23T13:09:46;101742.84;;;17.74;67.64
13068;BME280;6600;51.362;6.686;2023-05-23T13:12:11;101751.47;;;17.59;67.09